sensor_id;sensor_type;location;lat;lon;timestamp;P1;durP1;ratioP1;P2;durP2;ratioP2
20731;SDS011;10527;52.124;5.196;2023-11-21T00:02:07;9.83;;;6.40;;
20731;SDS011;10527;52.124;5.196;2023-11-21T00:04:34;9.47;;;6.50;;
20731;SDS011;10527;52.124;5.196;2023-11-21T00:07:02;12.10;;;6.80;;
20731;SDS011;10527;52.124;5.196;2023-11-21T00:09:29;11.53;;;6.60;;
20731;SDS011;10527;52.124;5.196;2023-11-21T00:11:57;9.00;;;6.13;;
20731;SDS011;10527;52.124;5.196;2023-11-21T00:14:28;7.73;;;5.63;;
20731;SDS011;10527;52.124;5.196;2023-11-21T00:16:56;8.07;;;6.17;;
20731;SDS011;10527;52.124;5.196;2023-11-21T00:19:23;13.70;;;6.47;;
20731;SDS011;10527;52.124;5.196;2023-11-21T00:21:51;9.10;;;6.33;;
20731;SDS011;10527;52.124;5.196;2023-11-21T00:24:18;10.17;;;6.40;;
20731;SDS011;10527;52.124;5.196;2023-11-21T00:26:45;9.50;;;6.47;;
20731;SDS011;10527;52.124;5.196;2023-11-21T00:29:15;11.33;;;6.20;;
20731;SDS011;10527;52.124;5.196;2023-11-21T00:31:44;9.57;;;6.57;;
20731;SDS011;10527;52.124;5.196;2023-11-21T00:34:11;14.63;;;6.87;;
20731;SDS011;10527;52.124;5.196;2023-11-21T00:36:39;9.60;;;6.00;;
20731;SDS011;10527;52.124;5.196;2023-11-21T00:39:07;8.87;;;6.43;;
20731;SDS011;10527;52.124;5.196;2023-11-21T00:41:35;9.77;;;5.83;;
20731;SDS011;10527;52.124;5.196;2023-11-21T00:44:03;14.53;;;7.30;;
20731;SDS011;10527;52.124;5.196;2023-11-21T00:46:31;9.23;;;6.17;;
20731;SDS011;10527;52.124;5.196;2023-11-21T00:48:58;8.70;;;6.23;;
20731;SDS011;10527;52.124;5.196;2023-11-21T00:51:26;10.70;;;6.87;;
20731;SDS011;10527;52.124;5.196;2023-11-21T00:53:53;9.40;;;6.17;;
20731;SDS011;10527;52.124;5.196;2023-11-21T00:56:22;9.67;;;6.40;;
20731;SDS011;10527;52.124;5.196;2023-11-21T00:58:50;12.97;;;6.10;;
20731;SDS011;10527;52.124;5.196;2023-11-21T01:01:19;9.70;;;6.43;;
20731;SDS011;10527;52.124;5.196;2023-11-21T01:03:48;11.67;;;6.43;;
20731;SDS011;10527;52.124;5.196;2023-11-21T01:06:15;10.55;;;5.90;;
20731;SDS011;10527;52.124;5.196;2023-11-21T01:08:43;8.93;;;6.17;;
20731;SDS011;10527;52.124;5.196;2023-11-21T01:11:11;11.00;;;6.47;;
20731;SDS011;10527;52.124;5.196;2023-11-21T01:13:39;12.30;;;6.93;;
20731;SDS011;10527;52.124;5.196;2023-11-21T01:16:07;9.60;;;5.67;;
20731;SDS011;10527;52.124;5.196;2023-11-21T01:18:35;15.70;;;7.40;;
20731;SDS011;10527;52.124;5.196;2023-11-21T01:21:03;9.37;;;6.07;;
20731;SDS011;10527;52.124;5.196;2023-11-21T01:23:31;13.33;;;6.93;;
20731;SDS011;10527;52.124;5.196;2023-11-21T01:25:58;14.03;;;6.67;;
20731;SDS011;10527;52.124;5.196;2023-11-21T01:28:25;11.63;;;6.37;;
20731;SDS011;10527;52.124;5.196;2023-11-21T01:30:54;10.97;;;6.47;;
20731;SDS011;10527;52.124;5.196;2023-11-21T01:33:23;11.13;;;6.43;;
20731;SDS011;10527;52.124;5.196;2023-11-21T01:35:52;11.17;;;6.87;;
20731;SDS011;10527;52.124;5.196;2023-11-21T01:38:21;14.67;;;8.03;;
20731;SDS011;10527;52.124;5.196;2023-11-21T01:40:49;11.37;;;6.30;;
20731;SDS011;10527;52.124;5.196;2023-11-21T01:43:17;13.93;;;7.37;;
20731;SDS011;10527;52.124;5.196;2023-11-21T01:45:45;10.30;;;6.97;;
20731;SDS011;10527;52.124;5.196;2023-11-21T01:48:13;10.57;;;6.53;;
20731;SDS011;10527;52.124;5.196;2023-11-21T01:50:41;12.27;;;6.87;;
20731;SDS011;10527;52.124;5.196;2023-11-21T01:53:08;10.93;;;7.10;;
20731;SDS011;10527;52.124;5.196;2023-11-21T01:55:37;11.37;;;6.70;;
20731;SDS011;10527;52.124;5.196;2023-11-21T01:58:06;10.37;;;6.93;;
20731;SDS011;10527;52.124;5.196;2023-11-21T02:00:33;10.13;;;6.27;;
20731;SDS011;10527;52.124;5.196;2023-11-21T02:03:01;10.93;;;6.77;;
20731;SDS011;10527;52.124;5.196;2023-11-21T02:05:29;10.27;;;6.07;;
20731;SDS011;10527;52.124;5.196;2023-11-21T02:07:56;10.60;;;6.53;;
20731;SDS011;10527;52.124;5.196;2023-11-21T02:10:27;8.53;;;6.13;;
20731;SDS011;10527;52.124;5.196;2023-11-21T02:12:55;11.73;;;6.37;;
20731;SDS011;10527;52.124;5.196;2023-11-21T02:15:24;9.00;;;6.27;;
20731;SDS011;10527;52.124;5.196;2023-11-21T02:17:55;11.30;;;5.70;;
20731;SDS011;10527;52.124;5.196;2023-11-21T02:20:25;10.33;;;6.10;;
20731;SDS011;10527;52.124;5.196;2023-11-21T02:22:55;8.23;;;5.00;;
20731;SDS011;10527;52.124;5.196;2023-11-21T02:25:28;7.37;;;5.20;;
20731;SDS011;10527;52.124;5.196;2023-11-21T02:28:00;9.03;;;5.07;;
20731;SDS011;10527;52.124;5.196;2023-11-21T02:30:29;10.33;;;5.47;;
20731;SDS011;10527;52.124;5.196;2023-11-21T02:32:59;8.63;;;5.87;;
20731;SDS011;10527;52.124;5.196;2023-11-21T02:35:29;10.27;;;5.47;;
20731;SDS011;10527;52.124;5.196;2023-11-21T02:37:58;10.60;;;5.63;;
20731;SDS011;10527;52.124;5.196;2023-11-21T02:40:26;8.63;;;5.57;;
20731;SDS011;10527;52.124;5.196;2023-11-21T02:42:54;8.90;;;5.57;;
20731;SDS011;10527;52.124;5.196;2023-11-21T02:45:22;7.20;;;4.97;;
20731;SDS011;10527;52.124;5.196;2023-11-21T02:47:53;8.47;;;5.17;;
20731;SDS011;10527;52.124;5.196;2023-11-21T02:50:25;7.80;;;5.30;;
20731;SDS011;10527;52.124;5.196;2023-11-21T02:52:54;9.57;;;5.30;;
20731;SDS011;10527;52.124;5.196;2023-11-21T02:55:23;12.10;;;5.77;;
20731;SDS011;10527;52.124;5.196;2023-11-21T02:57:51;8.93;;;5.37;;
20731;SDS011;10527;52.124;5.196;2023-11-21T03:00:19;9.13;;;5.50;;
20731;SDS011;10527;52.124;5.196;2023-11-21T03:02:49;9.17;;;5.17;;
20731;SDS011;10527;52.124;5.196;2023-11-21T03:05:16;8.23;;;5.47;;
20731;SDS011;10527;52.124;5.196;2023-11-21T03:07:44;7.43;;;5.50;;
20731;SDS011;10527;52.124;5.196;2023-11-21T03:10:11;9.87;;;5.03;;
20731;SDS011;10527;52.124;5.196;2023-11-21T03:12:39;12.23;;;5.03;;
20731;SDS011;10527;52.124;5.196;2023-11-21T03:15:07;6.43;;;4.83;;
20731;SDS011;10527;52.124;5.196;2023-11-21T03:17:36;9.03;;;5.53;;
20731;SDS011;10527;52.124;5.196;2023-11-21T03:20:04;7.50;;;4.80;;
20731;SDS011;10527;52.124;5.196;2023-11-21T03:22:32;8.27;;;5.00;;
20731;SDS011;10527;52.124;5.196;2023-11-21T03:25:00;8.40;;;5.07;;
20731;SDS011;10527;52.124;5.196;2023-11-21T03:27:27;6.47;;;4.80;;
20731;SDS011;10527;52.124;5.196;2023-11-21T03:29:55;7.13;;;5.33;;
20731;SDS011;10527;52.124;5.196;2023-11-21T03:32:22;8.50;;;5.50;;
20731;SDS011;10527;52.124;5.196;2023-11-21T03:34:56;6.57;;;4.60;;
20731;SDS011;10527;52.124;5.196;2023-11-21T03:37:25;7.07;;;4.63;;
20731;SDS011;10527;52.124;5.196;2023-11-21T03:39:57;7.70;;;4.73;;
20731;SDS011;10527;52.124;5.196;2023-11-21T03:42:25;7.03;;;4.80;;
20731;SDS011;10527;52.124;5.196;2023-11-21T03:44:53;7.00;;;5.23;;
20731;SDS011;10527;52.124;5.196;2023-11-21T03:47:20;8.20;;;4.57;;
20731;SDS011;10527;52.124;5.196;2023-11-21T03:49:49;7.43;;;5.10;;
20731;SDS011;10527;52.124;5.196;2023-11-21T03:52:16;11.03;;;5.07;;
20731;SDS011;10527;52.124;5.196;2023-11-21T03:54:44;8.73;;;5.10;;
20731;SDS011;10527;52.124;5.196;2023-11-21T03:57:12;6.40;;;5.10;;
20731;SDS011;10527;52.124;5.196;2023-11-21T03:59:40;8.87;;;5.07;;
20731;SDS011;10527;52.124;5.196;2023-11-21T04:02:08;7.83;;;5.10;;
20731;SDS011;10527;52.124;5.196;2023-11-21T04:04:36;10.07;;;5.07;;
20731;SDS011;10527;52.124;5.196;2023-11-21T04:07:03;7.23;;;4.90;;
20731;SDS011;10527;52.124;5.196;2023-11-21T04:09:31;12.07;;;5.03;;
20731;SDS011;10527;52.124;5.196;2023-11-21T04:11:59;11.50;;;6.43;;
20731;SDS011;10527;52.124;5.196;2023-11-21T04:14:26;9.13;;;5.43;;
20731;SDS011;10527;52.124;5.196;2023-11-21T04:16:53;8.77;;;5.00;;
20731;SDS011;10527;52.124;5.196;2023-11-21T04:19:22;7.20;;;5.10;;
20731;SDS011;10527;52.124;5.196;2023-11-21T04:21:49;7.67;;;4.77;;
20731;SDS011;10527;52.124;5.196;2023-11-21T04:24:17;7.43;;;5.00;;
20731;SDS011;10527;52.124;5.196;2023-11-21T04:26:45;8.90;;;5.30;;
20731;SDS011;10527;52.124;5.196;2023-11-21T04:29:13;7.07;;;4.50;;
20731;SDS011;10527;52.124;5.196;2023-11-21T04:31:40;6.50;;;4.53;;
20731;SDS011;10527;52.124;5.196;2023-11-21T04:34:08;9.20;;;5.10;;
20731;SDS011;10527;52.124;5.196;2023-11-21T04:36:35;5.87;;;4.50;;
20731;SDS011;10527;52.124;5.196;2023-11-21T04:39:04;5.10;;;4.03;;
20731;SDS011;10527;52.124;5.196;2023-11-21T04:41:32;6.77;;;4.00;;
20731;SDS011;10527;52.124;5.196;2023-11-21T04:44:01;6.23;;;4.03;;
20731;SDS011;10527;52.124;5.196;2023-11-21T04:46:29;8.70;;;4.57;;
20731;SDS011;10527;52.124;5.196;2023-11-21T04:48:56;8.67;;;4.77;;
20731;SDS011;10527;52.124;5.196;2023-11-21T04:51:27;10.07;;;4.30;;
20731;SDS011;10527;52.124;5.196;2023-11-21T04:53:56;6.63;;;4.53;;
20731;SDS011;10527;52.124;5.196;2023-11-21T04:56:32;7.63;;;4.37;;
20731;SDS011;10527;52.124;5.196;2023-11-21T04:59:00;6.10;;;4.33;;
20731;SDS011;10527;52.124;5.196;2023-11-21T05:01:31;6.27;;;4.17;;
20731;SDS011;10527;52.124;5.196;2023-11-21T05:03:59;5.80;;;4.47;;
20731;SDS011;10527;52.124;5.196;2023-11-21T05:06:27;6.07;;;3.97;;
20731;SDS011;10527;52.124;5.196;2023-11-21T05:08:54;6.83;;;4.03;;
20731;SDS011;10527;52.124;5.196;2023-11-21T05:11:27;6.77;;;4.10;;
20731;SDS011;10527;52.124;5.196;2023-11-21T05:13:55;13.37;;;7.00;;
20731;SDS011;10527;52.124;5.196;2023-11-21T05:16:25;7.07;;;4.57;;
20731;SDS011;10527;52.124;5.196;2023-11-21T05:18:57;8.67;;;4.80;;
20731;SDS011;10527;52.124;5.196;2023-11-21T05:21:27;5.43;;;3.80;;
20731;SDS011;10527;52.124;5.196;2023-11-21T05:23:59;7.13;;;4.30;;
20731;SDS011;10527;52.124;5.196;2023-11-21T05:26:26;6.27;;;4.50;;
20731;SDS011;10527;52.124;5.196;2023-11-21T05:28:54;6.80;;;3.90;;
20731;SDS011;10527;52.124;5.196;2023-11-21T05:31:23;6.00;;;4.03;;
20731;SDS011;10527;52.124;5.196;2023-11-21T05:33:50;6.20;;;4.30;;
20731;SDS011;10527;52.124;5.196;2023-11-21T05:36:17;9.37;;;4.73;;
20731;SDS011;10527;52.124;5.196;2023-11-21T05:38:45;5.40;;;3.63;;
20731;SDS011;10527;52.124;5.196;2023-11-21T05:41:13;10.90;;;4.70;;
20731;SDS011;10527;52.124;5.196;2023-11-21T05:46:11;8.50;;;4.63;;
20731;SDS011;10527;52.124;5.196;2023-11-21T05:48:39;6.40;;;4.43;;
20731;SDS011;10527;52.124;5.196;2023-11-21T05:51:07;9.37;;;4.87;;
20731;SDS011;10527;52.124;5.196;2023-11-21T05:53:39;6.20;;;4.37;;
20731;SDS011;10527;52.124;5.196;2023-11-21T05:56:06;5.63;;;3.80;;
20731;SDS011;10527;52.124;5.196;2023-11-21T05:58:34;6.93;;;4.93;;
20731;SDS011;10527;52.124;5.196;2023-11-21T06:01:02;6.67;;;4.93;;
20731;SDS011;10527;52.124;5.196;2023-11-21T06:03:35;9.63;;;5.53;;
20731;SDS011;10527;52.124;5.196;2023-11-21T06:06:03;7.73;;;5.50;;
20731;SDS011;10527;52.124;5.196;2023-11-21T06:08:33;6.77;;;5.03;;
20731;SDS011;10527;52.124;5.196;2023-11-21T06:11:00;7.77;;;5.10;;
20731;SDS011;10527;52.124;5.196;2023-11-21T06:13:28;11.77;;;6.03;;
20731;SDS011;10527;52.124;5.196;2023-11-21T06:15:56;10.80;;;6.97;;
20731;SDS011;10527;52.124;5.196;2023-11-21T06:18:24;9.90;;;5.80;;
20731;SDS011;10527;52.124;5.196;2023-11-21T06:20:56;9.83;;;5.73;;
20731;SDS011;10527;52.124;5.196;2023-11-21T06:23:29;10.13;;;6.13;;
20731;SDS011;10527;52.124;5.196;2023-11-21T06:26:14;9.43;;;5.90;;
20731;SDS011;10527;52.124;5.196;2023-11-21T06:28:43;10.67;;;7.00;;
20731;SDS011;10527;52.124;5.196;2023-11-21T06:31:10;10.57;;;6.47;;
20731;SDS011;10527;52.124;5.196;2023-11-21T06:33:38;16.67;;;7.10;;
20731;SDS011;10527;52.124;5.196;2023-11-21T06:36:06;7.87;;;5.73;;
20731;SDS011;10527;52.124;5.196;2023-11-21T06:38:34;10.47;;;6.30;;
20731;SDS011;10527;52.124;5.196;2023-11-21T06:41:01;10.03;;;6.13;;
20731;SDS011;10527;52.124;5.196;2023-11-21T06:43:30;8.07;;;6.00;;
20731;SDS011;10527;52.124;5.196;2023-11-21T06:45:58;11.33;;;7.70;;
20731;SDS011;10527;52.124;5.196;2023-11-21T06:48:25;10.37;;;7.47;;
20731;SDS011;10527;52.124;5.196;2023-11-21T06:50:53;9.83;;;6.33;;
20731;SDS011;10527;52.124;5.196;2023-11-21T06:53:20;8.97;;;6.13;;
20731;SDS011;10527;52.124;5.196;2023-11-21T06:55:48;8.90;;;6.30;;
20731;SDS011;10527;52.124;5.196;2023-11-21T06:58:15;10.93;;;6.50;;
20731;SDS011;10527;52.124;5.196;2023-11-21T07:00:42;14.30;;;8.35;;
20731;SDS011;10527;52.124;5.196;2023-11-21T07:03:13;9.20;;;6.57;;
20731;SDS011;10527;52.124;5.196;2023-11-21T07:05:41;9.27;;;5.93;;
20731;SDS011;10527;52.124;5.196;2023-11-21T07:08:08;9.13;;;6.00;;
20731;SDS011;10527;52.124;5.196;2023-11-21T07:10:36;12.77;;;6.63;;
20731;SDS011;10527;52.124;5.196;2023-11-21T07:13:04;9.27;;;5.27;;
20731;SDS011;10527;52.124;5.196;2023-11-21T07:15:31;9.95;;;5.93;;
20731;SDS011;10527;52.124;5.196;2023-11-21T07:17:59;9.73;;;5.17;;
20731;SDS011;10527;52.124;5.196;2023-11-21T07:20:29;8.67;;;5.00;;
20731;SDS011;10527;52.124;5.196;2023-11-21T07:22:57;6.97;;;4.70;;
20731;SDS011;10527;52.124;5.196;2023-11-21T07:25:26;8.90;;;6.77;;
20731;SDS011;10527;52.124;5.196;2023-11-21T07:27:53;10.23;;;6.67;;
20731;SDS011;10527;52.124;5.196;2023-11-21T07:30:21;9.97;;;5.53;;
20731;SDS011;10527;52.124;5.196;2023-11-21T07:32:51;10.70;;;6.27;;
20731;SDS011;10527;52.124;5.196;2023-11-21T07:35:18;8.07;;;5.00;;
20731;SDS011;10527;52.124;5.196;2023-11-21T07:37:48;7.00;;;5.27;;
20731;SDS011;10527;52.124;5.196;2023-11-21T07:40:16;6.23;;;4.53;;
20731;SDS011;10527;52.124;5.196;2023-11-21T07:42:43;8.30;;;4.23;;
20731;SDS011;10527;52.124;5.196;2023-11-21T07:45:10;7.43;;;4.47;;
20731;SDS011;10527;52.124;5.196;2023-11-21T07:52:43;5.17;;;3.60;;
20731;SDS011;10527;52.124;5.196;2023-11-21T07:55:11;4.60;;;3.27;;
20731;SDS011;10527;52.124;5.196;2023-11-21T07:57:38;4.43;;;3.17;;
20731;SDS011;10527;52.124;5.196;2023-11-21T08:00:06;6.80;;;3.30;;
20731;SDS011;10527;52.124;5.196;2023-11-21T08:02:36;3.80;;;2.60;;
20731;SDS011;10527;52.124;5.196;2023-11-21T08:05:04;5.77;;;3.30;;
20731;SDS011;10527;52.124;5.196;2023-11-21T08:07:36;5.37;;;3.40;;
20731;SDS011;10527;52.124;5.196;2023-11-21T08:10:04;4.73;;;3.30;;
20731;SDS011;10527;52.124;5.196;2023-11-21T08:12:33;5.07;;;2.93;;
20731;SDS011;10527;52.124;5.196;2023-11-21T08:15:00;7.33;;;3.57;;
20731;SDS011;10527;52.124;5.196;2023-11-21T08:17:29;6.00;;;4.05;;
20731;SDS011;10527;52.124;5.196;2023-11-21T08:19:58;4.03;;;3.10;;
20731;SDS011;10527;52.124;5.196;2023-11-21T08:22:25;5.28;;;3.40;;
20731;SDS011;10527;52.124;5.196;2023-11-21T08:24:53;6.63;;;3.60;;
20731;SDS011;10527;52.124;5.196;2023-11-21T08:27:22;4.53;;;3.63;;
20731;SDS011;10527;52.124;5.196;2023-11-21T08:29:49;6.03;;;3.53;;
20731;SDS011;10527;52.124;5.196;2023-11-21T08:32:18;4.90;;;3.60;;
20731;SDS011;10527;52.124;5.196;2023-11-21T08:34:46;5.00;;;3.50;;
20731;SDS011;10527;52.124;5.196;2023-11-21T08:37:18;6.68;;;3.83;;
20731;SDS011;10527;52.124;5.196;2023-11-21T08:39:47;5.03;;;3.70;;
20731;SDS011;10527;52.124;5.196;2023-11-21T08:42:15;7.03;;;3.47;;
20731;SDS011;10527;52.124;5.196;2023-11-21T08:44:42;4.75;;;3.50;;
20731;SDS011;10527;52.124;5.196;2023-11-21T08:47:10;4.93;;;3.80;;
20731;SDS011;10527;52.124;5.196;2023-11-21T08:49:39;9.30;;;4.75;;
20731;SDS011;10527;52.124;5.196;2023-11-21T08:52:06;7.15;;;4.38;;
20731;SDS011;10527;52.124;5.196;2023-11-21T08:57:08;5.85;;;3.90;;
20731;SDS011;10527;52.124;5.196;2023-11-21T08:59:36;5.63;;;4.28;;
20731;SDS011;10527;52.124;5.196;2023-11-21T09:02:03;6.28;;;5.00;;
20731;SDS011;10527;52.124;5.196;2023-11-21T09:04:31;5.30;;;4.13;;
20731;SDS011;10527;52.124;5.196;2023-11-21T09:06:59;6.43;;;4.57;;
20731;SDS011;10527;52.124;5.196;2023-11-21T09:09:26;5.18;;;3.92;;
20731;SDS011;10527;52.124;5.196;2023-11-21T09:11:55;6.63;;;4.55;;
20731;SDS011;10527;52.124;5.196;2023-11-21T09:14:22;6.88;;;4.50;;
20731;SDS011;10527;52.124;5.196;2023-11-21T09:16:50;7.78;;;5.35;;
20731;SDS011;10527;52.124;5.196;2023-11-21T09:19:17;8.50;;;5.53;;
20731;SDS011;10527;52.124;5.196;2023-11-21T09:21:45;6.28;;;5.00;;
20731;SDS011;10527;52.124;5.196;2023-11-21T09:24:12;8.23;;;5.43;;
20731;SDS011;10527;52.124;5.196;2023-11-21T09:26:40;5.97;;;4.82;;
20731;SDS011;10527;52.124;5.196;2023-11-21T09:29:07;7.00;;;4.65;;
20731;SDS011;10527;52.124;5.196;2023-11-21T09:31:35;6.72;;;5.35;;
20731;SDS011;10527;52.124;5.196;2023-11-21T09:34:02;9.40;;;4.65;;
20731;SDS011;10527;52.124;5.196;2023-11-21T09:36:30;6.25;;;4.45;;
20731;SDS011;10527;52.124;5.196;2023-11-21T09:38:58;7.40;;;4.93;;
20731;SDS011;10527;52.124;5.196;2023-11-21T09:41:29;7.38;;;4.88;;
20731;SDS011;10527;52.124;5.196;2023-11-21T09:44:24;6.13;;;4.60;;
20731;SDS011;10527;52.124;5.196;2023-11-21T09:47:01;6.05;;;4.95;;
20731;SDS011;10527;52.124;5.196;2023-11-21T09:49:30;5.25;;;4.35;;
20731;SDS011;10527;52.124;5.196;2023-11-21T09:52:01;6.85;;;4.68;;
20731;SDS011;10527;52.124;5.196;2023-11-21T09:57:00;5.88;;;4.15;;
20731;SDS011;10527;52.124;5.196;2023-11-21T09:59:30;6.28;;;4.40;;
20731;SDS011;10527;52.124;5.196;2023-11-21T10:02:00;7.50;;;4.20;;
20731;SDS011;10527;52.124;5.196;2023-11-21T10:04:29;5.93;;;3.90;;
20731;SDS011;10527;52.124;5.196;2023-11-21T10:06:58;4.82;;;3.70;;
20731;SDS011;10527;52.124;5.196;2023-11-21T10:09:26;5.55;;;3.42;;
20731;SDS011;10527;52.124;5.196;2023-11-21T10:11:54;4.82;;;3.50;;
20731;SDS011;10527;52.124;5.196;2023-11-21T10:14:25;5.88;;;3.42;;
20731;SDS011;10527;52.124;5.196;2023-11-21T10:16:55;5.13;;;3.72;;
20731;SDS011;10527;52.124;5.196;2023-11-21T10:19:23;6.55;;;4.25;;
20731;SDS011;10527;52.124;5.196;2023-11-21T10:21:53;5.43;;;3.70;;
20731;SDS011;10527;52.124;5.196;2023-11-21T10:24:32;7.30;;;4.72;;
20731;SDS011;10527;52.124;5.196;2023-11-21T10:27:14;5.32;;;3.97;;
20731;SDS011;10527;52.124;5.196;2023-11-21T10:29:42;6.00;;;4.15;;
20731;SDS011;10527;52.124;5.196;2023-11-21T10:32:10;5.53;;;3.78;;
20731;SDS011;10527;52.124;5.196;2023-11-21T10:34:40;8.27;;;5.22;;
20731;SDS011;10527;52.124;5.196;2023-11-21T10:37:11;8.73;;;4.65;;
20731;SDS011;10527;52.124;5.196;2023-11-21T10:39:40;6.63;;;4.10;;
20731;SDS011;10527;52.124;5.196;2023-11-21T10:42:11;7.43;;;3.78;;
20731;SDS011;10527;52.124;5.196;2023-11-21T10:44:41;10.07;;;3.83;;
20731;SDS011;10527;52.124;5.196;2023-11-21T10:47:11;6.47;;;3.65;;
20731;SDS011;10527;52.124;5.196;2023-11-21T10:49:38;5.50;;;3.60;;
20731;SDS011;10527;52.124;5.196;2023-11-21T10:52:07;6.15;;;4.45;;
20731;SDS011;10527;52.124;5.196;2023-11-21T10:54:39;5.15;;;3.72;;
20731;SDS011;10527;52.124;5.196;2023-11-21T10:57:07;5.18;;;3.70;;
20731;SDS011;10527;52.124;5.196;2023-11-21T10:59:34;7.20;;;3.95;;
20731;SDS011;10527;52.124;5.196;2023-11-21T11:02:16;6.63;;;3.97;;
20731;SDS011;10527;52.124;5.196;2023-11-21T11:04:59;6.37;;;4.03;;
20731;SDS011;10527;52.124;5.196;2023-11-21T11:07:28;5.40;;;3.70;;
20731;SDS011;10527;52.124;5.196;2023-11-21T11:10:01;7.82;;;4.07;;
20731;SDS011;10527;52.124;5.196;2023-11-21T11:12:30;5.97;;;4.13;;
20731;SDS011;10527;52.124;5.196;2023-11-21T11:14:58;6.43;;;4.47;;
20731;SDS011;10527;52.124;5.196;2023-11-21T11:17:27;5.57;;;3.88;;
20731;SDS011;10527;52.124;5.196;2023-11-21T11:19:58;6.93;;;4.22;;
20731;SDS011;10527;52.124;5.196;2023-11-21T11:22:32;6.68;;;4.60;;
20731;SDS011;10527;52.124;5.196;2023-11-21T11:25:19;7.85;;;5.00;;
20731;SDS011;10527;52.124;5.196;2023-11-21T11:28:07;7.30;;;4.60;;
20731;SDS011;10527;52.124;5.196;2023-11-21T11:39:39;8.57;;;6.05;;
20731;SDS011;10527;52.124;5.196;2023-11-21T11:42:13;8.05;;;5.30;;
20731;SDS011;10527;52.124;5.196;2023-11-21T11:44:46;9.57;;;6.00;;
20731;SDS011;10527;52.124;5.196;2023-11-21T11:47:20;10.00;;;6.78;;
20731;SDS011;10527;52.124;5.196;2023-11-21T11:52:47;9.32;;;6.20;;
20731;SDS011;10527;52.124;5.196;2023-11-21T11:55:19;11.45;;;6.50;;
20731;SDS011;10527;52.124;5.196;2023-11-21T11:57:54;10.15;;;7.00;;
20731;SDS011;10527;52.124;5.196;2023-11-21T12:02:58;11.88;;;7.50;;
20731;SDS011;10527;52.124;5.196;2023-11-21T12:05:30;10.48;;;7.20;;
20731;SDS011;10527;52.124;5.196;2023-11-21T12:08:00;12.20;;;7.60;;
20731;SDS011;10527;52.124;5.196;2023-11-21T12:10:34;11.98;;;6.65;;
20731;SDS011;10527;52.124;5.196;2023-11-21T12:13:05;10.98;;;7.00;;
20731;SDS011;10527;52.124;5.196;2023-11-21T12:15:34;10.90;;;7.07;;
20731;SDS011;10527;52.124;5.196;2023-11-21T12:18:04;9.20;;;6.13;;
20731;SDS011;10527;52.124;5.196;2023-11-21T12:20:32;11.98;;;7.28;;
20731;SDS011;10527;52.124;5.196;2023-11-21T12:23:06;10.80;;;7.17;;
20731;SDS011;10527;52.124;5.196;2023-11-21T12:25:41;15.48;;;9.68;;
20731;SDS011;10527;52.124;5.196;2023-11-21T12:28:10;11.88;;;8.15;;
20731;SDS011;10527;52.124;5.196;2023-11-21T12:30:38;13.50;;;8.30;;
20731;SDS011;10527;52.124;5.196;2023-11-21T12:33:06;15.23;;;9.18;;
20731;SDS011;10527;52.124;5.196;2023-11-21T12:35:36;10.82;;;8.20;;
20731;SDS011;10527;52.124;5.196;2023-11-21T12:38:05;11.23;;;7.63;;
20731;SDS011;10527;52.124;5.196;2023-11-21T12:40:36;12.57;;;8.00;;
20731;SDS011;10527;52.124;5.196;2023-11-21T12:43:04;11.02;;;7.47;;
20731;SDS011;10527;52.124;5.196;2023-11-21T12:45:34;13.13;;;7.88;;
20731;SDS011;10527;52.124;5.196;2023-11-21T12:48:02;10.27;;;7.27;;
20731;SDS011;10527;52.124;5.196;2023-11-21T12:50:35;11.75;;;8.02;;
20731;SDS011;10527;52.124;5.196;2023-11-21T12:53:09;13.07;;;8.80;;
20731;SDS011;10527;52.124;5.196;2023-11-21T12:55:40;11.77;;;8.05;;
20731;SDS011;10527;52.124;5.196;2023-11-21T12:58:10;11.30;;;7.97;;
20731;SDS011;10527;52.124;5.196;2023-11-21T13:00:42;10.27;;;7.20;;
20731;SDS011;10527;52.124;5.196;2023-11-21T13:03:13;11.15;;;7.03;;
20731;SDS011;10527;52.124;5.196;2023-11-21T13:05:50;13.27;;;8.52;;
20731;SDS011;10527;52.124;5.196;2023-11-21T13:08:21;11.13;;;7.15;;
20731;SDS011;10527;52.124;5.196;2023-11-21T13:10:52;14.25;;;9.00;;
20731;SDS011;10527;52.124;5.196;2023-11-21T13:13:23;17.60;;;7.72;;
20731;SDS011;10527;52.124;5.196;2023-11-21T13:15:59;10.68;;;6.47;;
20731;SDS011;10527;52.124;5.196;2023-11-21T13:18:31;9.88;;;6.75;;
20731;SDS011;10527;52.124;5.196;2023-11-21T13:20:59;9.13;;;6.20;;
20731;SDS011;10527;52.124;5.196;2023-11-21T13:23:36;7.93;;;5.22;;
20731;SDS011;10527;52.124;5.196;2023-11-21T13:26:04;9.10;;;6.05;;
20731;SDS011;10527;52.124;5.196;2023-11-21T13:28:33;5.60;;;4.18;;
20731;SDS011;10527;52.124;5.196;2023-11-21T13:31:03;5.32;;;3.45;;
20731;SDS011;10527;52.124;5.196;2023-11-21T13:33:50;6.57;;;3.05;;
20731;SDS011;10527;52.124;5.196;2023-11-21T13:36:23;4.78;;;2.92;;
20731;SDS011;10527;52.124;5.196;2023-11-21T13:38:51;3.90;;;2.70;;
20731;SDS011;10527;52.124;5.196;2023-11-21T13:41:20;4.82;;;2.65;;
20731;SDS011;10527;52.124;5.196;2023-11-21T13:43:54;4.40;;;2.30;;
20731;SDS011;10527;52.124;5.196;2023-11-21T13:46:31;3.33;;;2.63;;
20731;SDS011;10527;52.124;5.196;2023-11-21T13:49:04;5.15;;;2.10;;
20731;SDS011;10527;52.124;5.196;2023-11-21T13:51:39;2.88;;;2.33;;
20731;SDS011;10527;52.124;5.196;2023-11-21T13:54:12;3.42;;;2.55;;
20731;SDS011;10527;52.124;5.196;2023-11-21T13:56:40;4.57;;;2.30;;
20731;SDS011;10527;52.124;5.196;2023-11-21T13:59:11;3.40;;;2.35;;
20731;SDS011;10527;52.124;5.196;2023-11-21T14:01:49;5.07;;;2.78;;
20731;SDS011;10527;52.124;5.196;2023-11-21T14:04:20;4.88;;;3.38;;
20731;SDS011;10527;52.124;5.196;2023-11-21T14:06:57;5.25;;;3.88;;
20731;SDS011;10527;52.124;5.196;2023-11-21T14:09:27;5.30;;;3.95;;
20731;SDS011;10527;52.124;5.196;2023-11-21T14:12:10;6.72;;;4.97;;
20731;SDS011;10527;52.124;5.196;2023-11-21T14:14:39;8.13;;;5.72;;
20731;SDS011;10527;52.124;5.196;2023-11-21T14:17:07;7.10;;;5.47;;
20731;SDS011;10527;52.124;5.196;2023-11-21T14:19:36;7.60;;;5.93;;
20731;SDS011;10527;52.124;5.196;2023-11-21T14:22:10;9.32;;;6.95;;
20731;SDS011;10527;52.124;5.196;2023-11-21T14:24:37;8.20;;;6.63;;
20731;SDS011;10527;52.124;5.196;2023-11-21T14:27:13;10.13;;;7.50;;
20731;SDS011;10527;52.124;5.196;2023-11-21T14:29:44;15.02;;;8.65;;
20731;SDS011;10527;52.124;5.196;2023-11-21T14:32:13;13.13;;;8.60;;
20731;SDS011;10527;52.124;5.196;2023-11-21T14:34:42;13.15;;;8.68;;
20731;SDS011;10527;52.124;5.196;2023-11-21T14:37:13;12.50;;;8.77;;
20731;SDS011;10527;52.124;5.196;2023-11-21T14:39:41;11.93;;;8.67;;
20731;SDS011;10527;52.124;5.196;2023-11-21T14:42:12;11.63;;;8.73;;
20731;SDS011;10527;52.124;5.196;2023-11-21T14:44:42;15.07;;;9.47;;
20731;SDS011;10527;52.124;5.196;2023-11-21T14:47:11;16.27;;;11.55;;
20731;SDS011;10527;52.124;5.196;2023-11-21T14:49:44;13.00;;;9.67;;
20731;SDS011;10527;52.124;5.196;2023-11-21T14:52:22;12.33;;;9.33;;
20731;SDS011;10527;52.124;5.196;2023-11-21T14:55:01;12.73;;;9.35;;
20731;SDS011;10527;52.124;5.196;2023-11-21T14:57:58;11.82;;;8.95;;
20731;SDS011;10527;52.124;5.196;2023-11-21T15:00:30;12.38;;;9.20;;
20731;SDS011;10527;52.124;5.196;2023-11-21T15:03:02;13.57;;;9.43;;
20731;SDS011;10527;52.124;5.196;2023-11-21T15:05:31;12.82;;;8.90;;
20731;SDS011;10527;52.124;5.196;2023-11-21T15:08:01;12.73;;;9.98;;
20731;SDS011;10527;52.124;5.196;2023-11-21T15:10:43;14.40;;;9.87;;
20731;SDS011;10527;52.124;5.196;2023-11-21T15:13:19;12.97;;;9.97;;
20731;SDS011;10527;52.124;5.196;2023-11-21T15:15:48;13.20;;;10.23;;
20731;SDS011;10527;52.124;5.196;2023-11-21T15:18:18;14.98;;;9.93;;
20731;SDS011;10527;52.124;5.196;2023-11-21T15:20:47;13.03;;;9.23;;
20731;SDS011;10527;52.124;5.196;2023-11-21T15:23:14;15.17;;;10.13;;
20731;SDS011;10527;52.124;5.196;2023-11-21T15:25:45;13.80;;;10.43;;